createdAt,value
2023-01-22T00:00:12.576Z,43.70
2023-01-22T00:02:58.168Z,45.03
2023-01-22T00:05:43.834Z,44.03
2023-01-22T00:08:29.553Z,41.55
2023-01-22T00:11:16.303Z,42.50
2023-01-22T00:14:02.287Z,41.33
2023-01-22T00:16:47.880Z,43.90
2023-01-22T00:19:33.339Z,44.42
2023-01-22T00:22:18.809Z,45.80
2023-01-22T00:25:17.298Z,42.85
2023-01-22T00:28:02.884Z,44.00
2023-01-22T00:30:50.908Z,42.90
2023-01-22T00:33:40.762Z,41.78
2023-01-22T00:36:26.708Z,42.35
2023-01-22T00:39:12.020Z,39.67
2023-01-22T00:41:58.066Z,37.00
2023-01-22T00:44:43.269Z,36.45
2023-01-22T00:47:28.948Z,35.88
2023-01-22T00:50:15.797Z,36.05
2023-01-22T00:56:07.628Z,33.92
2023-01-22T00:58:53.292Z,34.03
2023-01-22T01:01:41.874Z,33.58
2023-01-22T01:04:28.757Z,31.63
2023-01-22T01:07:14.209Z,29.95
2023-01-22T01:10:02.396Z,29.27
2023-01-22T01:12:50.633Z,28.83
2023-01-22T01:15:38.644Z,27.25
2023-01-22T01:18:24.310Z,26.40
2023-01-22T01:21:11.948Z,25.35
2023-01-22T01:24:00.701Z,24.60
2023-01-22T01:26:46.008Z,23.27
2023-01-22T01:29:31.740Z,25.08
2023-01-22T01:32:17.088Z,23.25
2023-01-22T01:35:02.852Z,23.25
2023-01-22T01:37:51.840Z,21.85
2023-01-22T01:40:43.769Z,20.95
2023-01-22T01:43:30.903Z,21.50
2023-01-22T01:46:22.869Z,21.48
2023-01-22T01:49:19.931Z,19.98
2023-01-22T01:52:11.500Z,19.52
2023-01-22T01:54:58.597Z,19.63
2023-01-22T01:57:44.318Z,19.85
2023-01-22T02:00:35.163Z,18.95
2023-01-22T02:03:23.720Z,19.52
2023-01-22T02:06:12.292Z,20.95
2023-01-22T02:09:00.466Z,18.95
2023-01-22T02:11:46.620Z,18.95
2023-01-22T02:14:34.832Z,18.05
2023-01-22T02:17:22.218Z,17.95
2023-01-22T02:20:10.190Z,17.10
2023-01-22T02:22:55.931Z,16.48
2023-01-22T02:25:41.467Z,16.30
2023-01-22T02:28:29.257Z,16.10
2023-01-22T02:31:14.836Z,16.23
2023-01-22T02:34:05.881Z,15.50
2023-01-22T02:36:52.177Z,16.75
2023-01-22T02:39:37.600Z,14.80
2023-01-22T02:42:26.733Z,13.85
2023-01-22T02:45:15.055Z,15.48
2023-01-22T02:48:00.619Z,14.50
2023-01-22T02:50:46.679Z,13.93
2023-01-22T02:53:34.998Z,14.60
2023-01-22T02:56:21.793Z,13.95
2023-01-22T02:59:07.190Z,14.00
2023-01-22T03:01:52.741Z,14.55
2023-01-22T03:04:38.732Z,13.77
2023-01-22T03:07:23.941Z,13.55
2023-01-22T03:10:16.548Z,14.75
2023-01-22T03:13:21.497Z,14.10
2023-01-22T03:16:30.349Z,14.18
2023-01-22T03:19:34.208Z,13.68
2023-01-22T03:22:19.779Z,14.50
2023-01-22T03:25:05.252Z,13.30
2023-01-22T03:28:09.173Z,13.05
2023-01-22T03:36:30.036Z,13.27
2023-01-22T03:39:21.252Z,13.82
2023-01-22T03:42:12.768Z,13.93
2023-01-22T03:44:58.508Z,13.77
2023-01-22T03:47:44.652Z,15.13
2023-01-22T03:50:48.667Z,14.25
2023-01-22T03:53:37.556Z,13.82
2023-01-22T03:56:24.234Z,13.95
2023-01-22T03:59:12.875Z,13.68
2023-01-22T04:01:58.644Z,14.90
2023-01-22T04:04:44.713Z,12.93
2023-01-22T04:07:30.947Z,14.20
2023-01-22T04:10:17.737Z,13.30
2023-01-22T04:13:04.086Z,13.45
2023-01-22T04:15:49.654Z,13.27
2023-01-22T04:18:54.863Z,13.40
2023-01-22T04:21:51.442Z,9.73
2023-01-22T04:25:01.595Z,14.10
2023-01-22T04:27:47.572Z,13.23
2023-01-22T04:30:36.064Z,13.27
2023-01-22T04:33:40.729Z,13.80
2023-01-22T04:36:33.266Z,12.43
2023-01-22T04:39:19.816Z,13.25
2023-01-22T04:42:08.913Z,12.13
2023-01-22T04:45:09.635Z,14.57
2023-01-22T04:47:55.410Z,13.18
2023-01-22T04:50:41.765Z,12.80
2023-01-22T04:53:29.924Z,13.10
2023-01-22T04:56:18.508Z,13.32
2023-01-22T04:59:08.548Z,12.13
2023-01-22T05:01:54.212Z,12.82
2023-01-22T05:04:40.931Z,12.52
2023-01-22T05:07:26.816Z,12.80
2023-01-22T05:10:15.869Z,11.85
2023-01-22T05:13:05.942Z,12.55
2023-01-22T05:15:51.909Z,13.00
2023-01-22T05:18:37.696Z,12.52
2023-01-22T05:21:23.139Z,12.18
2023-01-22T05:24:12.958Z,11.68
2023-01-22T05:27:04.307Z,11.73
2023-01-22T05:29:58.561Z,12.02
2023-01-22T05:33:04.283Z,11.40
2023-01-22T05:36:01.068Z,11.73
2023-01-22T05:38:47.166Z,10.55
2023-01-22T05:41:36.608Z,11.32
2023-01-22T05:44:21.723Z,10.57
2023-01-22T05:47:13.271Z,12.20
2023-01-22T05:50:02.404Z,11.32
2023-01-22T05:52:48.079Z,11.23
2023-01-22T05:55:44.255Z,11.05
2023-01-22T05:58:38.509Z,11.57
2023-01-22T06:01:24.944Z,12.75
2023-01-22T06:04:11.899Z,10.98
2023-01-22T06:06:57.492Z,12.43
2023-01-22T06:09:44.448Z,11.93
2023-01-22T06:12:29.633Z,11.35
2023-01-22T06:15:15.281Z,12.32
2023-01-22T06:18:06.146Z,12.10
2023-01-22T06:20:52.622Z,12.35
2023-01-22T06:23:38.208Z,12.13
2023-01-22T06:26:23.693Z,11.40
2023-01-22T06:29:08.918Z,12.43
2023-01-22T06:31:58.147Z,11.57
2023-01-22T06:34:44.167Z,12.52
2023-01-22T06:37:29.329Z,12.57
2023-01-22T06:40:21.212Z,12.38
2023-01-22T06:43:17.253Z,12.30
2023-01-22T06:46:06.710Z,10.82
2023-01-22T06:49:10.189Z,10.60
2023-01-22T06:52:00.349Z,11.35
2023-01-22T06:54:47.338Z,11.18
2023-01-22T06:57:34.249Z,10.95
2023-01-22T07:00:20.849Z,10.95
2023-01-22T07:03:10.103Z,11.55
2023-01-22T07:06:03.654Z,11.07
2023-01-22T07:08:49.315Z,11.35
2023-01-22T07:11:34.669Z,10.63
2023-01-22T07:14:32.364Z,10.00
2023-01-22T07:17:24.446Z,10.23
2023-01-22T07:20:12.990Z,9.52
2023-01-22T07:23:00.183Z,9.75
2023-01-22T07:25:46.538Z,9.52
2023-01-22T07:28:32.980Z,9.10
2023-01-22T07:31:24.752Z,9.45
2023-01-22T07:34:12.659Z,8.88
2023-01-22T07:36:58.259Z,8.20
2023-01-22T07:39:43.828Z,8.88
2023-01-22T07:42:29.323Z,7.97
2023-01-22T07:45:19.554Z,8.85
2023-01-22T07:48:07.700Z,8.30
2023-01-22T07:50:53.517Z,7.43
2023-01-22T07:53:39.962Z,8.55
2023-01-22T07:56:25.698Z,8.05
2023-01-22T07:59:10.875Z,7.70
2023-01-22T08:01:57.118Z,7.90
2023-01-22T08:04:43.261Z,8.23
2023-01-22T08:07:30.384Z,7.68
2023-01-22T08:10:17.362Z,8.80
2023-01-22T08:13:06.132Z,7.63
2023-01-22T08:15:52.089Z,8.23
2023-01-22T08:18:37.732Z,8.43
2023-01-22T08:21:25.935Z,7.90
2023-01-22T08:24:20.492Z,7.57
2023-01-22T08:27:06.160Z,8.20
2023-01-22T08:29:51.772Z,7.50
2023-01-22T08:32:42.014Z,7.93
2023-01-22T08:35:27.099Z,8.95
2023-01-22T08:38:13.828Z,7.60
2023-01-22T08:41:05.503Z,7.63
2023-01-22T08:43:53.949Z,7.30
2023-01-22T08:46:40.928Z,7.63
2023-01-22T08:49:26.520Z,6.97
2023-01-22T08:52:11.773Z,6.95
2023-01-22T08:54:57.532Z,7.60
2023-01-22T08:57:51.709Z,7.63
2023-01-22T09:00:37.040Z,7.25
2023-01-22T09:03:22.733Z,7.97
2023-01-22T09:06:28.622Z,8.20
2023-01-22T09:11:59.068Z,7.63
2023-01-22T09:14:47.550Z,7.78
2023-01-22T09:17:33.005Z,7.18
2023-01-22T09:20:19.038Z,7.45
2023-01-22T09:23:05.244Z,7.80
2023-01-22T09:25:50.741Z,6.70
2023-01-22T09:28:36.303Z,7.07
2023-01-22T09:31:21.647Z,7.38
2023-01-22T09:34:07.236Z,7.57
2023-01-22T09:36:55.833Z,7.50
2023-01-22T09:39:41.563Z,7.10
2023-01-22T09:42:32.319Z,6.68
2023-01-22T09:45:21.282Z,7.22
2023-01-22T09:48:15.260Z,7.20
2023-01-22T09:51:03.479Z,7.53
2023-01-22T09:53:58.934Z,7.05
2023-01-22T09:56:50.234Z,6.68
2023-01-22T09:59:45.321Z,7.25
2023-01-22T10:02:36.101Z,6.90
2023-01-22T10:05:44.282Z,6.82
2023-01-22T10:08:36.624Z,6.72
2023-01-22T10:11:22.022Z,7.70
2023-01-22T10:14:12.688Z,6.28
2023-01-22T10:17:01.557Z,6.80
2023-01-22T10:20:02.256Z,6.28
2023-01-22T10:22:48.976Z,6.25
2023-01-22T10:25:35.176Z,7.28
2023-01-22T10:28:32.076Z,6.60
2023-01-22T10:31:31.851Z,7.05
2023-01-22T10:34:23.667Z,6.30
2023-01-22T10:37:18.328Z,6.13
2023-01-22T10:40:03.957Z,4.85
2023-01-22T10:43:18.892Z,5.85
2023-01-22T10:46:23.776Z,5.95
2023-01-22T10:49:21.729Z,6.30
2023-01-22T10:52:23.697Z,8.48
2023-01-22T10:55:25.815Z,6.00
2023-01-22T10:58:18.193Z,6.28
2023-01-22T11:01:06.929Z,6.35
2023-01-22T11:03:55.718Z,5.32
2023-01-22T11:06:54.455Z,6.55
2023-01-22T11:09:46.612Z,5.95
2023-01-22T11:12:37.886Z,5.68
2023-01-22T11:15:32.220Z,5.32
2023-01-22T11:18:36.535Z,5.30
2023-01-22T11:21:30.806Z,5.28
2023-01-22T11:24:27.159Z,3.90
2023-01-22T11:27:49.077Z,5.63
2023-01-22T11:30:56.999Z,4.90
2023-01-22T11:34:05.936Z,5.45
2023-01-22T11:37:08.928Z,5.18
2023-01-22T11:40:21.673Z,4.68
2023-01-22T11:43:12.875Z,5.47
2023-01-22T11:46:11.192Z,4.20
2023-01-22T11:49:25.380Z,4.47
2023-01-22T11:52:31.154Z,4.35
2023-01-22T11:55:30.027Z,3.38
2023-01-22T11:58:36.919Z,3.15
2023-01-22T12:01:44.518Z,3.33
2023-01-22T12:04:41.984Z,2.97
2023-01-22T12:07:51.858Z,3.67
2023-01-22T12:10:46.659Z,3.38
2023-01-22T12:13:41.033Z,4.22
2023-01-22T12:16:50.284Z,4.13
2023-01-22T12:19:51.048Z,4.50
2023-01-22T12:23:01.551Z,4.38
2023-01-22T12:26:02.617Z,4.28
2023-01-22T12:28:50.789Z,5.18
2023-01-22T12:31:47.451Z,5.03
2023-01-22T12:34:43.134Z,4.70
2023-01-22T12:37:51.398Z,5.43
2023-01-22T12:40:58.676Z,5.50
2023-01-22T12:44:14.063Z,5.57
2023-01-22T12:47:17.071Z,5.07
2023-01-22T12:50:04.728Z,5.45
2023-01-22T12:53:04.923Z,5.20
2023-01-22T12:56:08.738Z,5.47
2023-01-22T12:58:57.720Z,5.82
2023-01-22T13:01:43.878Z,6.25
2023-01-22T13:04:33.510Z,6.03
2023-01-22T13:07:36.512Z,5.90
2023-01-22T13:10:39.231Z,5.82
2023-01-22T13:13:53.998Z,6.15
2023-01-22T13:19:36.471Z,5.70
2023-01-22T13:22:27.594Z,6.10
2023-01-22T13:25:26.815Z,5.97
2023-01-22T13:28:19.571Z,6.65
2023-01-22T13:31:16.222Z,6.00
2023-01-22T13:34:08.956Z,6.05
2023-01-22T13:36:58.202Z,5.50
2023-01-22T13:39:46.113Z,6.05
2023-01-22T13:42:33.695Z,6.28
2023-01-22T13:45:28.712Z,6.50
2023-01-22T13:48:18.179Z,7.18
2023-01-22T13:51:06.699Z,6.82
2023-01-22T13:53:54.890Z,6.78
2023-01-22T13:56:40.860Z,6.60
2023-01-22T13:59:35.007Z,6.63
2023-01-22T14:02:21.661Z,6.90
2023-01-22T14:05:27.267Z,7.25
2023-01-22T14:08:13.979Z,7.53
2023-01-22T14:11:00.332Z,6.60
2023-01-22T14:13:48.151Z,7.07
2023-01-22T14:16:40.637Z,6.90
2023-01-22T14:19:25.774Z,8.30
2023-01-22T14:22:11.672Z,7.05
2023-01-22T14:24:57.233Z,6.93
2023-01-22T14:27:50.978Z,7.32
2023-01-22T14:30:36.566Z,7.20
2023-01-22T14:33:33.901Z,7.10
2023-01-22T14:36:20.384Z,8.93
2023-01-22T14:39:07.119Z,9.20
2023-01-22T14:41:54.918Z,8.95
2023-01-22T14:44:40.374Z,8.77
2023-01-22T14:47:25.893Z,9.30
2023-01-22T14:50:11.819Z,9.60
2023-01-22T14:52:57.502Z,9.57
2023-01-22T14:55:43.176Z,9.40
2023-01-22T14:58:31.033Z,10.25
2023-01-22T15:01:25.724Z,9.98
2023-01-22T15:04:11.166Z,10.20
2023-01-22T15:06:57.172Z,10.30
2023-01-22T15:09:43.728Z,9.60
2023-01-22T15:12:29.303Z,9.80
2023-01-22T15:15:15.997Z,9.48
2023-01-22T15:18:01.533Z,9.88
2023-01-22T15:20:49.502Z,9.35
2023-01-22T15:23:34.949Z,9.93
2023-01-22T15:26:28.099Z,9.70
2023-01-22T15:29:16.536Z,9.65
2023-01-22T15:32:01.921Z,9.90
2023-01-22T15:34:49.910Z,9.93
2023-01-22T15:37:35.222Z,10.27
2023-01-22T15:40:23.019Z,10.23
2023-01-22T15:43:08.620Z,11.07
2023-01-22T15:45:54.119Z,12.23
2023-01-22T15:48:42.428Z,10.30
2023-01-22T15:51:37.190Z,12.50
2023-01-22T15:54:24.899Z,10.73
2023-01-22T15:57:12.382Z,10.65
2023-01-22T16:00:00.832Z,10.48
2023-01-22T16:02:46.179Z,10.85
2023-01-22T16:05:36.716Z,11.95
2023-01-22T16:08:22.008Z,11.00
2023-01-22T16:11:21.444Z,11.05
2023-01-22T16:14:09.682Z,10.43
2023-01-22T16:17:00.808Z,10.55
2023-01-22T16:19:46.072Z,12.15
2023-01-22T16:22:33.875Z,12.02
2023-01-22T16:25:19.821Z,13.88
2023-01-22T16:28:05.528Z,12.88
2023-01-22T16:30:51.576Z,12.07
2023-01-22T16:33:39.402Z,11.40
2023-01-22T16:36:27.353Z,9.98
2023-01-22T16:39:19.601Z,11.38
2023-01-22T16:42:05.068Z,10.98
2023-01-22T16:44:50.722Z,11.57
2023-01-22T16:47:39.208Z,11.07
2023-01-22T16:50:28.183Z,12.38
2023-01-22T16:53:13.665Z,12.77
2023-01-22T16:55:59.145Z,12.93
2023-01-22T16:58:44.705Z,12.70
2023-01-22T17:01:30.646Z,12.48
2023-01-22T17:04:16.361Z,13.02
2023-01-22T17:07:01.886Z,12.30
2023-01-22T17:09:47.576Z,13.07
2023-01-22T17:12:34.104Z,12.05
2023-01-22T17:15:19.484Z,12.15
2023-01-22T17:18:05.079Z,12.18
2023-01-22T17:21:01.935Z,12.27
2023-01-22T17:23:47.551Z,15.13
2023-01-22T17:26:32.949Z,13.82
2023-01-22T17:29:19.383Z,13.30
2023-01-22T17:32:05.767Z,17.17
2023-01-22T17:34:54.563Z,14.43
2023-01-22T17:37:39.707Z,12.70
2023-01-22T17:40:25.406Z,13.82
2023-01-22T17:43:20.968Z,13.90
2023-01-22T17:46:09.428Z,14.25
2023-01-22T17:48:59.529Z,14.65
2023-01-22T17:51:48.173Z,14.73
2023-01-22T17:54:36.429Z,14.95
2023-01-22T17:57:21.721Z,16.65
2023-01-22T18:00:14.218Z,15.50
2023-01-22T18:03:02.759Z,15.45
2023-01-22T18:05:48.095Z,14.57
2023-01-22T18:08:37.689Z,14.98
2023-01-22T18:11:27.732Z,14.95
2023-01-22T18:14:18.278Z,14.77
2023-01-22T18:17:03.569Z,15.13
2023-01-22T18:19:49.100Z,16.35
2023-01-22T18:22:34.691Z,16.10
2023-01-22T18:25:20.571Z,15.00
2023-01-22T18:28:06.195Z,15.32
2023-01-22T18:30:52.965Z,15.98
2023-01-22T18:33:39.456Z,14.43
2023-01-22T18:36:29.374Z,14.27
2023-01-22T18:39:18.132Z,14.27
2023-01-22T18:42:15.979Z,14.40
2023-01-22T18:45:01.390Z,16.20
2023-01-22T18:47:54.032Z,16.38
2023-01-22T18:50:39.920Z,18.02
2023-01-22T18:53:25.515Z,16.65
2023-01-22T18:56:31.988Z,17.33
2023-01-22T18:59:17.613Z,17.10
2023-01-22T19:02:03.998Z,15.52
2023-01-22T19:04:49.351Z,15.35
2023-01-22T19:07:38.068Z,16.48
2023-01-22T19:10:24.961Z,15.48
2023-01-22T19:13:11.919Z,16.58
2023-01-22T19:16:02.850Z,16.95
2023-01-22T19:18:48.896Z,16.17
2023-01-22T19:21:34.542Z,16.25
2023-01-22T19:24:26.530Z,14.52
2023-01-22T19:27:12.581Z,15.15
2023-01-22T19:29:58.240Z,14.73
2023-01-22T19:32:46.859Z,14.90
2023-01-22T19:35:32.233Z,15.52
2023-01-22T19:38:17.827Z,14.75
2023-01-22T19:41:03.979Z,16.33
2023-01-22T19:44:02.543Z,16.30
2023-01-22T19:46:48.094Z,16.83
2023-01-22T19:49:33.424Z,18.50
2023-01-22T19:52:19.675Z,20.45
2023-01-22T19:55:05.464Z,18.95
2023-01-22T19:57:55.937Z,16.20
2023-01-22T20:00:41.157Z,18.05
2023-01-22T20:03:27.280Z,17.23
2023-01-22T20:06:19.665Z,15.55
2023-01-22T20:09:05.428Z,22.10
2023-01-22T20:11:55.098Z,17.50
2023-01-22T20:14:43.892Z,17.67
2023-01-22T20:17:30.208Z,19.52
2023-01-22T20:20:15.843Z,15.93
2023-01-22T20:23:01.447Z,17.58
2023-01-22T20:25:46.675Z,22.33
2023-01-22T20:28:33.453Z,17.52
2023-01-22T20:31:25.114Z,18.30
2023-01-22T20:34:12.206Z,15.07
2023-01-22T20:36:57.780Z,14.95
2023-01-22T20:39:43.664Z,15.20
2023-01-22T20:42:29.275Z,13.98
2023-01-22T20:45:14.943Z,14.80
2023-01-22T20:48:03.420Z,14.02
2023-01-22T20:50:48.523Z,14.32
2023-01-22T20:53:34.130Z,14.55
2023-01-22T20:56:27.326Z,14.48
2023-01-22T20:59:17.366Z,15.25
2023-01-22T21:02:03.020Z,16.20
2023-01-22T21:04:52.688Z,13.68
2023-01-22T21:07:38.471Z,14.68
2023-01-22T21:10:24.151Z,13.60
2023-01-22T21:13:09.680Z,14.43
2023-01-22T21:15:55.781Z,15.02
2023-01-22T21:18:44.408Z,14.25
2023-01-22T21:21:31.426Z,13.18
2023-01-22T21:24:19.487Z,14.02
2023-01-22T21:27:05.149Z,14.07
2023-01-22T21:29:51.828Z,13.25
2023-01-22T21:32:37.041Z,14.23
2023-01-22T21:35:25.320Z,14.88
2023-01-22T21:38:10.664Z,15.43
2023-01-22T21:41:12.486Z,13.60
2023-01-22T21:44:16.095Z,14.75
2023-01-22T21:47:04.310Z,14.15
2023-01-22T21:49:52.858Z,15.00
2023-01-22T21:52:38.123Z,14.85
2023-01-22T21:55:23.946Z,15.32
2023-01-22T21:58:12.007Z,15.18
2023-01-22T22:01:07.031Z,14.13
2023-01-22T22:06:48.612Z,14.88
2023-01-22T22:09:34.219Z,15.93
2023-01-22T22:12:22.364Z,15.18
2023-01-22T22:15:15.508Z,15.23
2023-01-22T22:18:00.838Z,16.45
2023-01-22T22:20:46.288Z,14.85
2023-01-22T22:23:32.777Z,15.20
2023-01-22T22:26:18.467Z,15.32
2023-01-22T22:29:05.985Z,14.82
2023-01-22T22:31:51.416Z,15.25
2023-01-22T22:34:36.749Z,14.82
2023-01-22T22:37:22.221Z,15.10
2023-01-22T22:40:10.946Z,15.73
2023-01-22T22:43:02.443Z,15.27
2023-01-22T22:45:48.227Z,14.75
2023-01-22T22:48:34.151Z,15.18
2023-01-22T22:51:25.159Z,15.32
2023-01-22T22:54:17.886Z,16.63
2023-01-22T22:57:06.172Z,16.30
2023-01-22T22:59:54.654Z,15.40
2023-01-22T23:02:40.149Z,15.40
2023-01-22T23:05:25.395Z,15.23
2023-01-22T23:08:13.566Z,16.02
2023-01-22T23:11:03.921Z,15.40
2023-01-22T23:13:49.748Z,14.65
2023-01-22T23:16:37.829Z,15.93
2023-01-22T23:19:25.947Z,16.10
2023-01-22T23:22:14.014Z,15.27
2023-01-22T23:24:59.319Z,15.38
2023-01-22T23:27:45.358Z,15.45
2023-01-22T23:30:30.620Z,15.25
2023-01-22T23:33:16.707Z,15.40
2023-01-22T23:36:13.590Z,15.82
2023-01-22T23:38:59.052Z,15.18
2023-01-22T23:41:45.688Z,14.98
2023-01-22T23:44:30.987Z,15.50
2023-01-22T23:47:16.527Z,15.05
2023-01-22T23:50:09.074Z,15.80
2023-01-22T23:52:54.521Z,15.20
2023-01-22T23:56:05.053Z,15.60
2023-01-22T23:58:52.697Z,14.60
